sensor_id;sensor_type;location;lat;lon;timestamp;pressure;altitude;pressure_sealevel;temperature;humidity
69980;BME280;57318;56.232;43.944;2023-08-21T00:01:20;98973.47;;;15.66;93.23
69980;BME280;57318;56.232;43.944;2023-08-21T00:03:46;98974.63;;;15.63;93.25
69980;BME280;57318;56.232;43.944;2023-08-21T00:06:12;98976.81;;;15.60;93.42
69980;BME280;57318;56.232;43.944;2023-08-21T00:08:37;98974.13;;;15.60;93.45
69980;BME280;57318;56.232;43.944;2023-08-21T00:11:03;98980.81;;;15.56;93.28
69980;BME280;57318;56.232;43.944;2023-08-21T00:13:29;98973.59;;;15.56;93.32
69980;BME280;57318;56.232;43.944;2023-08-21T00:15:55;98975.44;;;15.56;93.58
69980;BME280;57318;56.232;43.944;2023-08-21T00:18:22;98971.94;;;15.55;93.52
69980;BME280;57318;56.232;43.944;2023-08-21T00:20:47;98976.44;;;15.55;93.51
69980;BME280;57318;56.232;43.944;2023-08-21T00:23:13;98973.75;;;15.55;93.51
69980;BME280;57318;56.232;43.944;2023-08-21T00:25:39;98977.31;;;15.55;93.44
69980;BME280;57318;56.232;43.944;2023-08-21T00:28:05;98976.44;;;15.46;93.09
69980;BME280;57318;56.232;43.944;2023-08-21T00:30:31;98971.41;;;15.43;93.30
69980;BME280;57318;56.232;43.944;2023-08-21T00:32:57;98966.41;;;15.40;93.20
69980;BME280;57318;56.232;43.944;2023-08-21T00:35:25;98968.41;;;15.38;93.21
69980;BME280;57318;56.232;43.944;2023-08-21T00:37:51;98965.06;;;15.36;93.29
69980;BME280;57318;56.232;43.944;2023-08-21T00:40:17;98974.25;;;15.33;93.23
69980;BME280;57318;56.232;43.944;2023-08-21T00:42:43;98963.56;;;15.33;93.25
69980;BME280;57318;56.232;43.944;2023-08-21T00:45:09;98963.56;;;15.33;93.65
69980;BME280;57318;56.232;43.944;2023-08-21T00:47:36;98970.91;;;15.31;93.45
69980;BME280;57318;56.232;43.944;2023-08-21T00:50:02;98968.41;;;15.30;93.66
69980;BME280;57318;56.232;43.944;2023-08-21T00:52:30;98970.56;;;15.26;93.10
69980;BME280;57318;56.232;43.944;2023-08-21T00:54:56;98972.22;;;15.19;93.13
69980;BME280;57318;56.232;43.944;2023-08-21T00:57:22;98969.06;;;15.15;93.08
69980;BME280;57318;56.232;43.944;2023-08-21T00:59:48;98967.84;;;15.10;93.28
69980;BME280;57318;56.232;43.944;2023-08-21T01:02:14;98968.19;;;15.07;93.38
69980;BME280;57318;56.232;43.944;2023-08-21T01:04:40;98971.03;;;15.05;93.45
69980;BME280;57318;56.232;43.944;2023-08-21T01:07:05;98973.03;;;15.03;93.55
69980;BME280;57318;56.232;43.944;2023-08-21T01:09:46;98966.16;;;15.01;93.91
69980;BME280;57318;56.232;43.944;2023-08-21T01:14:58;98967.66;;;14.95;93.59
69980;BME280;57318;56.232;43.944;2023-08-21T01:17:25;98966.97;;;14.93;93.77
69980;BME280;57318;56.232;43.944;2023-08-21T01:19:52;98965.16;;;14.93;94.07
69980;BME280;57318;56.232;43.944;2023-08-21T01:22:18;98966.66;;;14.96;94.63
69980;BME280;57318;56.232;43.944;2023-08-21T01:24:44;98973.84;;;14.95;94.64
69980;BME280;57318;56.232;43.944;2023-08-21T01:27:12;98978.38;;;14.95;94.57
69980;BME280;57318;56.232;43.944;2023-08-21T01:29:39;98976.50;;;14.95;94.66
69980;BME280;57318;56.232;43.944;2023-08-21T01:32:31;98974.50;;;14.97;94.93
69980;BME280;57318;56.232;43.944;2023-08-21T01:34:59;98982.53;;;14.97;94.75
69980;BME280;57318;56.232;43.944;2023-08-21T01:37:26;98986.03;;;14.98;94.53
69980;BME280;57318;56.232;43.944;2023-08-21T01:39:53;98995.41;;;14.94;94.25
69980;BME280;57318;56.232;43.944;2023-08-21T01:42:18;98992.06;;;14.92;94.02
69980;BME280;57318;56.232;43.944;2023-08-21T01:44:44;99001.91;;;14.91;94.03
69980;BME280;57318;56.232;43.944;2023-08-21T01:47:13;99008.13;;;14.92;94.50
69980;BME280;57318;56.232;43.944;2023-08-21T01:49:38;99006.94;;;14.94;94.69
69980;BME280;57318;56.232;43.944;2023-08-21T01:52:04;99006.78;;;14.96;94.61
69980;BME280;57318;56.232;43.944;2023-08-21T01:54:30;99013.16;;;14.95;94.54
69980;BME280;57318;56.232;43.944;2023-08-21T01:56:55;99009.78;;;14.93;94.49
69980;BME280;57318;56.232;43.944;2023-08-21T01:59:24;99008.44;;;14.89;94.23
69980;BME280;57318;56.232;43.944;2023-08-21T02:01:50;99007.06;;;14.85;93.94
69980;BME280;57318;56.232;43.944;2023-08-21T02:04:15;99011.06;;;14.80;93.81
69980;BME280;57318;56.232;43.944;2023-08-21T02:06:41;99009.41;;;14.79;93.87
69980;BME280;57318;56.232;43.944;2023-08-21T02:09:09;99012.91;;;14.80;94.13
69980;BME280;57318;56.232;43.944;2023-08-21T02:11:35;99017.09;;;14.83;94.11
69980;BME280;57318;56.232;43.944;2023-08-21T02:14:01;99017.78;;;14.85;94.43
69980;BME280;57318;56.232;43.944;2023-08-21T02:16:27;99028.16;;;14.88;94.39
69980;BME280;57318;56.232;43.944;2023-08-21T02:18:53;99024.47;;;14.89;94.53
69980;BME280;57318;56.232;43.944;2023-08-21T02:21:19;99025.16;;;14.91;94.81
69980;BME280;57318;56.232;43.944;2023-08-21T02:23:45;99025.16;;;14.91;94.39
69980;BME280;57318;56.232;43.944;2023-08-21T02:26:11;99020.78;;;14.90;94.10
69980;BME280;57318;56.232;43.944;2023-08-21T02:28:37;99023.47;;;14.90;94.12
69980;BME280;57318;56.232;43.944;2023-08-21T02:31:02;99031.81;;;14.87;93.93
69980;BME280;57318;56.232;43.944;2023-08-21T02:33:28;99023.13;;;14.85;93.90
69980;BME280;57318;56.232;43.944;2023-08-21T02:35:54;99032.13;;;14.84;93.81
69980;BME280;57318;56.232;43.944;2023-08-21T02:38:19;99033.47;;;14.79;93.60
69980;BME280;57318;56.232;43.944;2023-08-21T02:40:45;99033.78;;;14.76;93.47
69980;BME280;57318;56.232;43.944;2023-08-21T02:43:13;99030.56;;;14.73;93.68
69980;BME280;57318;56.232;43.944;2023-08-21T02:45:38;99027.22;;;14.71;94.05
69980;BME280;57318;56.232;43.944;2023-08-21T02:48:04;99033.41;;;14.71;94.38
69980;BME280;57318;56.232;43.944;2023-08-21T02:50:30;99030.56;;;14.73;94.63
69980;BME280;57318;56.232;43.944;2023-08-21T02:52:55;99030.41;;;14.74;94.88
69980;BME280;57318;56.232;43.944;2023-08-21T02:55:21;99035.75;;;14.74;95.11
69980;BME280;57318;56.232;43.944;2023-08-21T02:57:47;99043.78;;;14.74;95.06
69980;BME280;57318;56.232;43.944;2023-08-21T03:00:13;99040.13;;;14.75;94.98
69980;BME280;57318;56.232;43.944;2023-08-21T03:02:39;99033.09;;;14.74;94.85
69980;BME280;57318;56.232;43.944;2023-08-21T03:05:09;99046.63;;;14.73;94.50
69980;BME280;57318;56.232;43.944;2023-08-21T03:07:35;99047.78;;;14.70;94.40
69980;BME280;57318;56.232;43.944;2023-08-21T03:10:01;99044.97;;;14.72;94.51
69980;BME280;57318;56.232;43.944;2023-08-21T03:12:29;99042.13;;;14.73;94.43
69980;BME280;57318;56.232;43.944;2023-08-21T03:14:55;99048.47;;;14.72;94.32
69980;BME280;57318;56.232;43.944;2023-08-21T03:17:21;99042.44;;;14.70;93.79
69980;BME280;57318;56.232;43.944;2023-08-21T03:19:47;99050.63;;;14.69;93.36
69980;BME280;57318;56.232;43.944;2023-08-21T03:22:12;99048.13;;;14.67;93.46
69980;BME280;57318;56.232;43.944;2023-08-21T03:24:39;99047.44;;;14.65;93.20
69980;BME280;57318;56.232;43.944;2023-08-21T03:27:04;99047.44;;;14.65;93.32
69980;BME280;57318;56.232;43.944;2023-08-21T03:29:30;99051.78;;;14.66;93.40
69980;BME280;57318;56.232;43.944;2023-08-21T03:31:57;99052.09;;;14.63;93.07
69980;BME280;57318;56.232;43.944;2023-08-21T03:34:23;99052.09;;;14.63;92.85
69980;BME280;57318;56.232;43.944;2023-08-21T03:36:49;99045.38;;;14.59;92.51
69980;BME280;57318;56.232;43.944;2023-08-21T03:39:15;99047.91;;;14.60;92.81
69980;BME280;57318;56.232;43.944;2023-08-21T03:41:41;99047.06;;;14.60;92.52
69980;BME280;57318;56.232;43.944;2023-08-21T03:44:07;99048.44;;;14.64;92.75
69980;BME280;57318;56.232;43.944;2023-08-21T03:46:33;99049.81;;;14.68;92.45
69980;BME280;57318;56.232;43.944;2023-08-21T03:48:59;99046.78;;;14.71;92.56
69980;BME280;57318;56.232;43.944;2023-08-21T03:51:25;99051.13;;;14.72;92.43
69980;BME280;57318;56.232;43.944;2023-08-21T03:53:51;99038.44;;;14.74;91.96
69980;BME280;57318;56.232;43.944;2023-08-21T03:56:16;99048.16;;;14.75;91.65
69980;BME280;57318;56.232;43.944;2023-08-21T03:58:44;99048.81;;;14.77;91.60
69980;BME280;57318;56.232;43.944;2023-08-21T04:01:10;99051.34;;;14.79;91.51
69980;BME280;57318;56.232;43.944;2023-08-21T04:03:36;99053.53;;;14.84;91.66
69980;BME280;57318;56.232;43.944;2023-08-21T04:06:02;99048.88;;;14.86;91.59
69980;BME280;57318;56.232;43.944;2023-08-21T04:08:28;99050.06;;;14.91;91.36
69980;BME280;57318;56.232;43.944;2023-08-21T04:10:53;99055.59;;;14.98;90.64
69980;BME280;57318;56.232;43.944;2023-08-21T04:13:19;99052.44;;;15.03;89.78
69980;BME280;57318;56.232;43.944;2023-08-21T04:15:45;99056.31;;;15.08;89.50
69980;BME280;57318;56.232;43.944;2023-08-21T04:18:11;99054.00;;;15.13;88.86
69980;BME280;57318;56.232;43.944;2023-08-21T04:20:37;99059.34;;;15.13;88.51
69980;BME280;57318;56.232;43.944;2023-08-21T04:23:03;99053.03;;;15.23;88.59
69980;BME280;57318;56.232;43.944;2023-08-21T04:25:29;99049.38;;;15.32;88.66
69980;BME280;57318;56.232;43.944;2023-08-21T04:27:55;99054.75;;;15.40;87.47
69980;BME280;57318;56.232;43.944;2023-08-21T04:30:20;99059.63;;;15.53;87.03
69980;BME280;57318;56.232;43.944;2023-08-21T04:32:47;99061.81;;;15.58;86.45
69980;BME280;57318;56.232;43.944;2023-08-21T04:35:13;99056.13;;;15.61;85.98
69980;BME280;57318;56.232;43.944;2023-08-21T04:37:45;99052.13;;;15.65;85.85
69980;BME280;57318;56.232;43.944;2023-08-21T04:40:12;99061.84;;;15.74;85.55
69980;BME280;57318;56.232;43.944;2023-08-21T04:42:37;99057.19;;;15.84;85.26
69980;BME280;57318;56.232;43.944;2023-08-21T04:45:03;99056.72;;;15.97;84.31
69980;BME280;57318;56.232;43.944;2023-08-21T04:47:31;99060.56;;;16.28;83.17
69980;BME280;57318;56.232;43.944;2023-08-21T04:49:58;99065.38;;;16.49;81.12
69980;BME280;57318;56.232;43.944;2023-08-21T04:52:24;99073.53;;;16.80;79.86
69980;BME280;57318;56.232;43.944;2023-08-21T04:54:51;99064.09;;;17.01;78.71
69980;BME280;57318;56.232;43.944;2023-08-21T04:57:17;99062.66;;;17.21;77.82
69980;BME280;57318;56.232;43.944;2023-08-21T04:59:43;99067.63;;;17.41;76.03
69980;BME280;57318;56.232;43.944;2023-08-21T05:02:09;99065.31;;;17.61;74.61
69980;BME280;57318;56.232;43.944;2023-08-21T05:04:36;99063.53;;;17.76;73.53
69980;BME280;57318;56.232;43.944;2023-08-21T05:07:03;99070.50;;;17.94;73.18
69980;BME280;57318;56.232;43.944;2023-08-21T05:09:28;99064.63;;;18.13;72.37
69980;BME280;57318;56.232;43.944;2023-08-21T05:11:55;99069.72;;;18.08;70.03
69980;BME280;57318;56.232;43.944;2023-08-21T05:14:21;99074.75;;;18.11;70.07
69980;BME280;57318;56.232;43.944;2023-08-21T05:16:49;99075.84;;;18.17;68.88
69980;BME280;57318;56.232;43.944;2023-08-21T05:19:15;99063.84;;;18.04;69.17
69980;BME280;57318;56.232;43.944;2023-08-21T05:21:40;99088.09;;;17.96;69.57
69980;BME280;57318;56.232;43.944;2023-08-21T05:24:06;99089.00;;;17.89;69.46
69980;BME280;57318;56.232;43.944;2023-08-21T05:26:32;99083.00;;;17.78;69.42
69980;BME280;57318;56.232;43.944;2023-08-21T05:28:58;99088.22;;;17.80;69.82
69980;BME280;57318;56.232;43.944;2023-08-21T05:31:23;99092.69;;;18.11;69.86
69980;BME280;57318;56.232;43.944;2023-08-21T05:33:49;99094.31;;;18.20;68.82
69980;BME280;57318;56.232;43.944;2023-08-21T05:36:15;99096.63;;;18.23;69.31
69980;BME280;57318;56.232;43.944;2023-08-21T05:38:40;99104.25;;;18.19;69.11
69980;BME280;57318;56.232;43.944;2023-08-21T05:41:06;99103.69;;;18.24;69.43
69980;BME280;57318;56.232;43.944;2023-08-21T05:43:33;99105.94;;;18.20;68.38
69980;BME280;57318;56.232;43.944;2023-08-21T05:46:00;99106.81;;;18.13;68.35
69980;BME280;57318;56.232;43.944;2023-08-21T05:48:25;99110.59;;;18.03;68.38
69980;BME280;57318;56.232;43.944;2023-08-21T05:50:52;99113.19;;;18.12;68.13
69980;BME280;57318;56.232;43.944;2023-08-21T05:53:17;99105.25;;;18.18;68.41
69980;BME280;57318;56.232;43.944;2023-08-21T05:55:43;99115.38;;;18.31;67.88
69980;BME280;57318;56.232;43.944;2023-08-21T05:58:09;99110.69;;;18.33;67.26
69980;BME280;57318;56.232;43.944;2023-08-21T06:00:35;99109.81;;;18.33;66.92
69980;BME280;57318;56.232;43.944;2023-08-21T06:03:01;99102.72;;;18.40;66.82
69980;BME280;57318;56.232;43.944;2023-08-21T06:05:27;99105.94;;;18.35;67.17
69980;BME280;57318;56.232;43.944;2023-08-21T06:07:53;99110.31;;;18.36;66.91
69980;BME280;57318;56.232;43.944;2023-08-21T06:10:18;99113.47;;;18.40;67.39
69980;BME280;57318;56.232;43.944;2023-08-21T06:12:45;99109.97;;;18.54;67.50
69980;BME280;57318;56.232;43.944;2023-08-21T06:15:11;99108.63;;;18.73;66.17
69980;BME280;57318;56.232;43.944;2023-08-21T06:17:37;99106.34;;;18.85;64.52
69980;BME280;57318;56.232;43.944;2023-08-21T06:20:05;99111.56;;;18.87;64.33
69980;BME280;57318;56.232;43.944;2023-08-21T06:22:32;99113.03;;;18.89;63.98
69980;BME280;57318;56.232;43.944;2023-08-21T06:24:59;99115.81;;;19.26;63.78
69980;BME280;57318;56.232;43.944;2023-08-21T06:27:24;99118.81;;;19.82;61.30
69980;BME280;57318;56.232;43.944;2023-08-21T06:29:50;99118.91;;;21.59;57.86
69980;BME280;57318;56.232;43.944;2023-08-21T06:32:16;99117.53;;;23.82;51.94
69980;BME280;57318;56.232;43.944;2023-08-21T06:34:42;99127.78;;;25.87;46.92
69980;BME280;57318;56.232;43.944;2023-08-21T06:37:08;99132.69;;;26.27;45.01
69980;BME280;57318;56.232;43.944;2023-08-21T06:39:34;99128.94;;;26.09;43.86
69980;BME280;57318;56.232;43.944;2023-08-21T06:42:00;99130.31;;;25.14;45.36
69980;BME280;57318;56.232;43.944;2023-08-21T06:44:26;99122.47;;;23.99;46.82
69980;BME280;57318;56.232;43.944;2023-08-21T06:46:52;99123.50;;;24.29;47.11
69980;BME280;57318;56.232;43.944;2023-08-21T06:49:18;99126.09;;;25.37;44.59
69980;BME280;57318;56.232;43.944;2023-08-21T06:51:44;99134.19;;;26.77;41.25
69980;BME280;57318;56.232;43.944;2023-08-21T06:54:09;99125.72;;;28.19;38.83
69980;BME280;57318;56.232;43.944;2023-08-21T06:56:35;99134.06;;;30.02;36.05
69980;BME280;57318;56.232;43.944;2023-08-21T06:59:01;99133.34;;;29.63;34.71
69980;BME280;57318;56.232;43.944;2023-08-21T07:01:27;99138.28;;;29.22;34.87
69980;BME280;57318;56.232;43.944;2023-08-21T07:03:53;99137.78;;;29.08;35.21
69980;BME280;57318;56.232;43.944;2023-08-21T07:06:19;99128.56;;;29.31;34.86
69980;BME280;57318;56.232;43.944;2023-08-21T07:08:45;99130.75;;;29.51;34.31
69980;BME280;57318;56.232;43.944;2023-08-21T07:11:10;99130.13;;;29.71;34.04
69980;BME280;57318;56.232;43.944;2023-08-21T07:13:38;99141.69;;;29.51;34.25
69980;BME280;57318;56.232;43.944;2023-08-21T07:16:04;99137.69;;;29.37;34.20
69980;BME280;57318;56.232;43.944;2023-08-21T07:18:38;99140.13;;;29.38;33.90
69980;BME280;57318;56.232;43.944;2023-08-21T07:21:04;99137.28;;;29.28;33.97
69980;BME280;57318;56.232;43.944;2023-08-21T07:23:33;99147.41;;;29.94;33.49
69980;BME280;57318;56.232;43.944;2023-08-21T07:26:00;99143.66;;;29.56;33.76
69980;BME280;57318;56.232;43.944;2023-08-21T07:28:26;99135.09;;;28.57;34.87
69980;BME280;57318;56.232;43.944;2023-08-21T07:30:56;99141.78;;;27.75;36.08
69980;BME280;57318;56.232;43.944;2023-08-21T07:33:22;99145.38;;;28.04;36.24
69980;BME280;57318;56.232;43.944;2023-08-21T07:35:57;99146.31;;;29.73;33.73
69980;BME280;57318;56.232;43.944;2023-08-21T07:38:23;99149.06;;;31.88;30.79
69980;BME280;57318;56.232;43.944;2023-08-21T07:40:48;99149.38;;;33.45;28.18
69980;BME280;57318;56.232;43.944;2023-08-21T07:43:14;99149.38;;;34.01;26.97
69980;BME280;57318;56.232;43.944;2023-08-21T07:45:40;99147.47;;;33.31;27.31
69980;BME280;57318;56.232;43.944;2023-08-21T07:48:05;99148.47;;;33.60;26.67
69980;BME280;57318;56.232;43.944;2023-08-21T07:50:31;99143.13;;;33.90;26.35
69980;BME280;57318;56.232;43.944;2023-08-21T07:52:57;99146.78;;;34.25;25.59
69980;BME280;57318;56.232;43.944;2023-08-21T07:55:23;99146.31;;;34.47;25.13
69980;BME280;57318;56.232;43.944;2023-08-21T07:57:49;99136.59;;;33.65;25.81
69980;BME280;57318;56.232;43.944;2023-08-21T08:00:15;99138.88;;;31.73;27.58
69980;BME280;57318;56.232;43.944;2023-08-21T08:02:41;99129.00;;;29.67;30.16
69980;BME280;57318;56.232;43.944;2023-08-21T08:05:08;99136.50;;;28.76;32.10
69980;BME280;57318;56.232;43.944;2023-08-21T08:07:34;99136.13;;;29.68;30.69
69980;BME280;57318;56.232;43.944;2023-08-21T08:10:00;99140.03;;;31.34;28.81
69980;BME280;57318;56.232;43.944;2023-08-21T08:12:25;99140.66;;;32.82;26.32
69980;BME280;57318;56.232;43.944;2023-08-21T08:14:51;99138.16;;;34.31;23.81
69980;BME280;57318;56.232;43.944;2023-08-21T08:17:17;99140.25;;;35.57;22.62
69980;BME280;57318;56.232;43.944;2023-08-21T08:19:42;99145.16;;;36.60;21.29
69980;BME280;57318;56.232;43.944;2023-08-21T08:22:09;99138.31;;;37.46;20.16
69980;BME280;57318;56.232;43.944;2023-08-21T08:24:34;99147.66;;;38.15;19.68
69980;BME280;57318;56.232;43.944;2023-08-21T08:27:00;99134.28;;;37.80;19.69
69980;BME280;57318;56.232;43.944;2023-08-21T08:29:27;99137.25;;;37.84;19.56
69980;BME280;57318;56.232;43.944;2023-08-21T08:31:52;99127.84;;;36.69;20.41
69980;BME280;57318;56.232;43.944;2023-08-21T08:34:18;99124.38;;;36.77;19.97
69980;BME280;57318;56.232;43.944;2023-08-21T08:36:46;99122.53;;;35.39;21.33
69980;BME280;57318;56.232;43.944;2023-08-21T08:39:11;99116.31;;;34.75;21.61
69980;BME280;57318;56.232;43.944;2023-08-21T08:41:53;99112.25;;;33.12;22.92
69980;BME280;57318;56.232;43.944;2023-08-21T08:44:19;99110.88;;;31.91;24.61
69980;BME280;57318;56.232;43.944;2023-08-21T08:46:45;99099.78;;;30.27;26.45
69980;BME280;57318;56.232;43.944;2023-08-21T08:49:11;99098.59;;;28.63;28.49
69980;BME280;57318;56.232;43.944;2023-08-21T08:51:38;99085.88;;;27.36;30.76
69980;BME280;57318;56.232;43.944;2023-08-21T08:54:06;99095.69;;;29.26;28.91
69980;BME280;57318;56.232;43.944;2023-08-21T08:56:33;99089.31;;;31.47;26.07
69980;BME280;57318;56.232;43.944;2023-08-21T08:58:58;99084.75;;;31.73;25.71
69980;BME280;57318;56.232;43.944;2023-08-21T09:01:24;99083.44;;;31.96;24.87
69980;BME280;57318;56.232;43.944;2023-08-21T09:03:49;99083.97;;;31.15;25.56
69980;BME280;57318;56.232;43.944;2023-08-21T09:06:15;99075.50;;;31.21;26.26
69980;BME280;57318;56.232;43.944;2023-08-21T09:08:51;99076.53;;;29.75;28.16
69980;BME280;57318;56.232;43.944;2023-08-21T09:11:18;99079.91;;;31.27;25.87
69980;BME280;57318;56.232;43.944;2023-08-21T09:13:45;99083.97;;;32.91;23.43
69980;BME280;57318;56.232;43.944;2023-08-21T09:16:12;99088.69;;;34.45;21.61
69980;BME280;57318;56.232;43.944;2023-08-21T09:18:49;99080.88;;;33.23;22.61
69980;BME280;57318;56.232;43.944;2023-08-21T09:21:19;99087.59;;;34.76;20.94
69980;BME280;57318;56.232;43.944;2023-08-21T09:23:50;99089.88;;;36.22;19.72
69980;BME280;57318;56.232;43.944;2023-08-21T09:26:20;99085.13;;;37.72;18.32
69980;BME280;57318;56.232;43.944;2023-08-21T09:28:47;99090.78;;;39.11;16.82
69980;BME280;57318;56.232;43.944;2023-08-21T09:31:13;99085.41;;;40.25;16.06
69980;BME280;57318;56.232;43.944;2023-08-21T09:33:40;99086.75;;;40.75;15.31
69980;BME280;57318;56.232;43.944;2023-08-21T09:36:06;99090.78;;;41.63;14.84
69980;BME280;57318;56.232;43.944;2023-08-21T09:38:35;99078.44;;;42.15;14.47
69980;BME280;57318;56.232;43.944;2023-08-21T09:41:01;99080.34;;;42.69;13.79
69980;BME280;57318;56.232;43.944;2023-08-21T09:43:28;99076.41;;;40.93;15.31
69980;BME280;57318;56.232;43.944;2023-08-21T09:45:55;99080.84;;;40.76;15.01
69980;BME280;57318;56.232;43.944;2023-08-21T09:48:26;99067.75;;;38.48;17.11
69980;BME280;57318;56.232;43.944;2023-08-21T09:50:55;99063.59;;;38.14;17.34
69980;BME280;57318;56.232;43.944;2023-08-21T09:53:25;99049.69;;;37.32;18.27
69980;BME280;57318;56.232;43.944;2023-08-21T09:55:53;99054.97;;;37.43;17.95
69980;BME280;57318;56.232;43.944;2023-08-21T09:58:20;99050.59;;;36.20;18.62
69980;BME280;57318;56.232;43.944;2023-08-21T10:00:48;99059.72;;;34.72;19.75
69980;BME280;57318;56.232;43.944;2023-08-21T10:03:18;99059.25;;;36.00;18.63
69980;BME280;57318;56.232;43.944;2023-08-21T10:05:45;99059.59;;;37.47;17.19
69980;BME280;57318;56.232;43.944;2023-08-21T10:08:15;99064.97;;;38.48;16.61
69980;BME280;57318;56.232;43.944;2023-08-21T10:10:41;99067.31;;;39.26;15.57
69980;BME280;57318;56.232;43.944;2023-08-21T10:13:07;99064.63;;;39.79;15.62
69980;BME280;57318;56.232;43.944;2023-08-21T10:15:36;99057.09;;;39.88;15.57
69980;BME280;57318;56.232;43.944;2023-08-21T10:20:47;99054.47;;;40.91;12.80
69980;BME280;57318;56.232;43.944;2023-08-21T10:23:27;99053.69;;;41.12;12.50
69980;BME280;57318;56.232;43.944;2023-08-21T10:25:55;99048.19;;;41.54;12.29
69980;BME280;57318;56.232;43.944;2023-08-21T10:28:22;99048.06;;;42.14;11.76
69980;BME280;57318;56.232;43.944;2023-08-21T10:30:48;99048.84;;;42.35;11.51
69980;BME280;57318;56.232;43.944;2023-08-21T10:33:14;99052.41;;;42.94;10.78
69980;BME280;57318;56.232;43.944;2023-08-21T10:35:39;99050.91;;;43.46;10.97
69980;BME280;57318;56.232;43.944;2023-08-21T10:40:35;99039.03;;;42.29;11.79
69980;BME280;57318;56.232;43.944;2023-08-21T10:43:01;99041.03;;;39.50;14.50
69980;BME280;57318;56.232;43.944;2023-08-21T10:45:29;99041.84;;;39.42;14.32
69980;BME280;57318;56.232;43.944;2023-08-21T10:47:59;99041.88;;;40.20;13.25
69980;BME280;57318;56.232;43.944;2023-08-21T10:50:26;99031.97;;;41.26;12.35
69980;BME280;57318;56.232;43.944;2023-08-21T10:52:53;99039.75;;;42.05;11.89
69980;BME280;57318;56.232;43.944;2023-08-21T10:55:19;99041.22;;;42.69;11.82
69980;BME280;57318;56.232;43.944;2023-08-21T10:57:47;99040.66;;;43.13;11.09
69980;BME280;57318;56.232;43.944;2023-08-21T11:00:16;99041.25;;;43.19;11.18
69980;BME280;57318;56.232;43.944;2023-08-21T11:02:47;99038.91;;;43.46;11.32
69980;BME280;57318;56.232;43.944;2023-08-21T11:05:14;99038.91;;;43.46;11.31
69980;BME280;57318;56.232;43.944;2023-08-21T11:07:49;99032.03;;;43.18;11.33
69980;BME280;57318;56.232;43.944;2023-08-21T11:10:17;99031.22;;;40.79;12.72
69980;BME280;57318;56.232;43.944;2023-08-21T11:12:49;99030.75;;;38.07;14.78
69980;BME280;57318;56.232;43.944;2023-08-21T11:15:16;99023.69;;;35.74;16.80
69980;BME280;57318;56.232;43.944;2023-08-21T11:17:50;99014.03;;;34.02;18.35
69980;BME280;57318;56.232;43.944;2023-08-21T11:20:15;99013.06;;;32.36;20.59
69980;BME280;57318;56.232;43.944;2023-08-21T11:22:41;99009.63;;;31.16;22.39
69980;BME280;57318;56.232;43.944;2023-08-21T11:25:07;99005.25;;;30.30;23.61
69980;BME280;57318;56.232;43.944;2023-08-21T11:27:33;99005.13;;;29.55;24.68
69980;BME280;57318;56.232;43.944;2023-08-21T11:30:00;98991.59;;;28.98;25.62
69980;BME280;57318;56.232;43.944;2023-08-21T11:32:26;98990.22;;;28.57;26.41
69980;BME280;57318;56.232;43.944;2023-08-21T11:34:55;98992.59;;;28.70;25.83
69980;BME280;57318;56.232;43.944;2023-08-21T11:37:24;98988.56;;;30.74;23.09
69980;BME280;57318;56.232;43.944;2023-08-21T11:39:54;98995.69;;;32.77;21.12
69980;BME280;57318;56.232;43.944;2023-08-21T11:42:29;99004.50;;;34.19;19.55
69980;BME280;57318;56.232;43.944;2023-08-21T11:44:56;99005.94;;;35.42;17.97
69980;BME280;57318;56.232;43.944;2023-08-21T11:47:23;99004.91;;;36.42;17.14
69980;BME280;57318;56.232;43.944;2023-08-21T11:49:50;99004.00;;;37.30;15.88
69980;BME280;57318;56.232;43.944;2023-08-21T11:52:21;99000.13;;;38.13;15.17
69980;BME280;57318;56.232;43.944;2023-08-21T11:54:49;99009.66;;;38.92;14.28
69980;BME280;57318;56.232;43.944;2023-08-21T11:57:16;99004.84;;;39.24;13.78
69980;BME280;57318;56.232;43.944;2023-08-21T11:59:41;98995.94;;;39.53;14.04
69980;BME280;57318;56.232;43.944;2023-08-21T12:02:14;98998.13;;;38.67;14.85
69980;BME280;57318;56.232;43.944;2023-08-21T12:04:41;98990.78;;;36.71;16.15
69980;BME280;57318;56.232;43.944;2023-08-21T12:07:06;98986.47;;;35.09;17.62
69980;BME280;57318;56.232;43.944;2023-08-21T12:09:32;98992.47;;;33.30;19.51
69980;BME280;57318;56.232;43.944;2023-08-21T12:12:00;98977.63;;;31.89;21.12
69980;BME280;57318;56.232;43.944;2023-08-21T12:14:28;98975.38;;;30.71;22.29
69980;BME280;57318;56.232;43.944;2023-08-21T12:16:54;98975.50;;;29.79;23.76
69980;BME280;57318;56.232;43.944;2023-08-21T12:19:22;98976.09;;;29.04;24.83
69980;BME280;57318;56.232;43.944;2023-08-21T12:21:49;98959.59;;;28.55;25.11
69980;BME280;57318;56.232;43.944;2023-08-21T12:24:18;98971.75;;;28.86;24.64
69980;BME280;57318;56.232;43.944;2023-08-21T12:26:46;98968.25;;;28.91;24.44
69980;BME280;57318;56.232;43.944;2023-08-21T12:29:12;98962.94;;;28.40;25.13
69980;BME280;57318;56.232;43.944;2023-08-21T12:31:38;98966.44;;;27.84;25.64
69980;BME280;57318;56.232;43.944;2023-08-21T12:34:07;98970.50;;;27.24;26.75
69980;BME280;57318;56.232;43.944;2023-08-21T12:36:35;98971.59;;;26.59;28.14
69980;BME280;57318;56.232;43.944;2023-08-21T12:39:05;98971.94;;;26.86;28.14
69980;BME280;57318;56.232;43.944;2023-08-21T12:41:31;98973.06;;;28.22;26.75
69980;BME280;57318;56.232;43.944;2023-08-21T12:43:59;98976.69;;;29.56;25.10
69980;BME280;57318;56.232;43.944;2023-08-21T12:46:25;98968.22;;;30.22;23.91
69980;BME280;57318;56.232;43.944;2023-08-21T12:48:53;98974.16;;;31.04;22.96
69980;BME280;57318;56.232;43.944;2023-08-21T12:51:19;98976.84;;;32.14;21.82
69980;BME280;57318;56.232;43.944;2023-08-21T12:53:45;98981.13;;;32.71;20.65
69980;BME280;57318;56.232;43.944;2023-08-21T12:56:10;98970.44;;;32.54;20.69